createdAt,value
2023-01-25T00:00:47.788Z,103564.16
2023-01-25T00:03:15.579Z,103551.53
2023-01-25T00:05:43.344Z,103542.78
2023-01-25T00:08:11.054Z,103516.59
2023-01-25T00:10:38.847Z,103518.16
2023-01-25T00:13:06.601Z,103504.41
2023-01-25T00:15:34.717Z,103521.13
2023-01-25T00:18:03.817Z,103523.03
2023-01-25T00:20:31.552Z,103503.59
2023-01-25T00:22:59.260Z,103518.19
2023-01-25T00:25:26.948Z,103538.25
2023-01-25T00:27:54.683Z,103547.31
2023-01-25T00:30:22.411Z,103544.16
2023-01-25T00:32:55.504Z,103514.50
2023-01-25T00:35:24.733Z,103474.47
2023-01-25T00:37:54.816Z,103455.44
2023-01-25T00:40:22.554Z,103454.81
2023-01-25T00:42:50.285Z,103432.28
2023-01-25T00:45:19.108Z,103433.78
2023-01-25T00:47:46.868Z,103428.13
2023-01-25T00:50:14.618Z,103415.13
2023-01-25T00:52:43.746Z,103375.81
2023-01-25T00:55:11.541Z,103392.34
2023-01-25T00:57:39.276Z,103405.00
2023-01-25T01:00:08.659Z,103419.09
2023-01-25T01:02:36.368Z,103417.56
2023-01-25T01:05:04.188Z,103387.84
2023-01-25T01:07:32.371Z,103383.19
2023-01-25T01:10:01.783Z,103345.31
2023-01-25T01:12:29.477Z,103361.78
2023-01-25T01:14:57.676Z,103339.47
2023-01-25T01:17:25.751Z,103363.69
2023-01-25T01:19:53.473Z,103378.22
2023-01-25T01:22:21.243Z,103394.06
2023-01-25T01:24:49.272Z,103379.25
2023-01-25T01:27:18.504Z,103378.53
2023-01-25T01:29:46.802Z,103374.50
2023-01-25T01:32:14.585Z,103364.66
2023-01-25T01:34:42.417Z,103368.00
2023-01-25T01:37:10.129Z,103335.81
2023-01-25T01:39:37.846Z,103321.69
2023-01-25T01:42:05.907Z,103312.31
2023-01-25T01:44:49.699Z,103267.34
2023-01-25T01:47:23.569Z,103267.84
2023-01-25T01:49:55.094Z,103278.06
2023-01-25T01:52:29.391Z,103292.47
2023-01-25T01:55:01.260Z,103288.06
2023-01-25T01:57:33.229Z,103307.28
2023-01-25T02:00:06.537Z,103314.94
2023-01-25T02:02:34.496Z,103299.19
2023-01-25T02:05:08.391Z,103325.47
2023-01-25T02:07:38.373Z,103296.28
2023-01-25T02:10:08.515Z,103267.94
2023-01-25T02:12:37.865Z,103271.88
2023-01-25T02:15:08.723Z,103265.66
2023-01-25T02:17:39.502Z,103277.94
2023-01-25T02:20:16.623Z,103251.97
2023-01-25T02:22:53.136Z,103239.00
2023-01-25T02:25:22.523Z,103224.88
2023-01-25T02:27:54.851Z,103230.00
2023-01-25T02:30:23.679Z,103233.13
2023-01-25T02:32:51.817Z,103225.75
2023-01-25T02:35:22.027Z,103237.38
2023-01-25T02:37:50.373Z,103223.50
2023-01-25T02:40:18.498Z,103200.72
2023-01-25T02:42:48.073Z,103198.59
2023-01-25T02:45:19.839Z,103182.34
2023-01-25T02:47:48.682Z,103186.69
2023-01-25T02:50:17.047Z,103188.06
2023-01-25T02:52:44.834Z,103179.91
2023-01-25T02:55:12.646Z,103182.09
2023-01-25T02:57:40.371Z,103158.75
2023-01-25T03:00:11.450Z,103163.75
2023-01-25T03:02:39.218Z,103160.75
2023-01-25T03:05:07.761Z,103154.06
2023-01-25T03:07:35.590Z,103142.22
2023-01-25T03:10:03.315Z,103145.94
2023-01-25T03:12:31.014Z,103141.91
2023-01-25T03:14:58.748Z,103130.91
2023-01-25T03:17:28.182Z,103138.00
2023-01-25T03:19:55.889Z,103141.34
2023-01-25T03:22:23.785Z,103137.34
2023-01-25T03:24:51.485Z,103126.47
2023-01-25T03:27:19.336Z,103135.47
2023-01-25T03:29:47.479Z,103134.88
2023-01-25T03:32:15.328Z,103129.53
2023-01-25T03:34:44.551Z,103129.72
2023-01-25T03:37:12.328Z,103115.63
2023-01-25T03:39:40.043Z,103134.63
2023-01-25T03:42:08.015Z,103128.91
2023-01-25T03:44:35.847Z,103119.91
2023-01-25T03:47:04.104Z,103114.66
2023-01-25T03:49:31.929Z,103116.22
2023-01-25T03:52:01.061Z,103111.25
2023-01-25T03:54:28.810Z,103112.38
2023-01-25T03:56:56.520Z,103104.63
2023-01-25T03:59:24.312Z,103101.94
2023-01-25T04:01:52.156Z,103099.34
2023-01-25T04:04:19.940Z,103096.47
2023-01-25T04:06:47.661Z,103097.94
2023-01-25T04:09:17.185Z,103086.94
2023-01-25T04:11:44.901Z,103081.63
2023-01-25T04:14:12.891Z,103074.53
2023-01-25T04:16:40.651Z,103082.78
2023-01-25T04:19:08.604Z,103086.41
2023-01-25T04:21:36.386Z,103083.25
2023-01-25T04:24:04.316Z,103075.44
2023-01-25T04:26:33.440Z,103074.75
2023-01-25T04:29:01.167Z,103074.03
2023-01-25T04:31:28.992Z,103065.41
2023-01-25T04:33:56.949Z,103061.44
2023-01-25T04:36:24.697Z,103067.38
2023-01-25T04:38:52.384Z,103055.22
2023-01-25T04:41:20.107Z,103062.59
2023-01-25T04:43:49.193Z,103069.47
2023-01-25T04:46:16.954Z,103063.53
2023-01-25T04:48:45.121Z,103046.06
2023-01-25T04:51:14.361Z,103052.00
2023-01-25T04:53:42.141Z,103053.25
2023-01-25T04:56:09.935Z,103068.59
2023-01-25T04:58:37.892Z,103057.59
2023-01-25T05:01:07.385Z,103039.09
2023-01-25T05:03:35.166Z,103043.53
2023-01-25T05:06:02.969Z,103049.06
2023-01-25T05:08:31.730Z,103037.13
2023-01-25T05:10:59.463Z,103029.41
2023-01-25T05:13:27.168Z,103037.56
2023-01-25T05:15:57.148Z,103024.38
2023-01-25T05:18:30.994Z,103026.19
2023-01-25T05:21:03.600Z,103023.22
2023-01-25T05:23:31.394Z,103019.38
2023-01-25T05:26:16.605Z,103003.91
2023-01-25T05:28:44.332Z,103020.22
2023-01-25T05:31:12.432Z,103015.06
2023-01-25T05:33:41.595Z,103017.13
2023-01-25T05:36:09.523Z,103009.81
2023-01-25T05:38:37.268Z,103012.78
2023-01-25T05:41:05.163Z,103019.44
2023-01-25T05:43:32.896Z,103017.75
2023-01-25T05:46:00.822Z,103009.56
2023-01-25T05:48:28.603Z,103004.22
2023-01-25T05:50:59.889Z,103018.25
2023-01-25T05:53:27.895Z,103019.03
2023-01-25T05:55:55.982Z,103017.84
2023-01-25T05:58:23.924Z,103007.44
2023-01-25T06:00:51.608Z,102997.31
2023-01-25T06:03:19.386Z,102981.00
2023-01-25T06:05:47.215Z,102977.09
2023-01-25T06:08:16.324Z,102983.84
2023-01-25T06:10:44.082Z,102987.13
2023-01-25T06:13:11.822Z,102995.28
2023-01-25T06:15:39.596Z,102987.91
2023-01-25T06:18:07.379Z,102990.72
2023-01-25T06:20:35.170Z,102986.91
2023-01-25T06:23:02.910Z,102981.69
2023-01-25T06:25:31.979Z,102988.69
2023-01-25T06:27:59.702Z,102988.06
2023-01-25T06:30:27.415Z,102981.69
2023-01-25T06:32:55.133Z,102974.50
2023-01-25T06:35:22.865Z,102987.03
2023-01-25T06:37:50.642Z,102982.25
2023-01-25T06:40:18.676Z,102990.78
2023-01-25T06:42:47.791Z,102990.50
2023-01-25T06:45:15.589Z,102987.53
2023-01-25T06:47:43.396Z,103000.13
2023-01-25T06:50:11.845Z,102986.06
2023-01-25T06:52:39.639Z,102984.78
2023-01-25T06:55:12.849Z,102991.97
2023-01-25T06:57:41.010Z,102986.25
2023-01-25T07:00:11.855Z,102989.09
2023-01-25T07:02:39.922Z,102994.28
2023-01-25T07:05:08.994Z,102987.91
2023-01-25T07:07:36.833Z,102988.88
2023-01-25T07:10:04.779Z,102979.47
2023-01-25T07:12:32.621Z,102982.81
2023-01-25T07:15:00.353Z,102975.25
2023-01-25T07:17:29.469Z,102974.50
2023-01-25T07:19:57.278Z,102974.59
2023-01-25T07:22:25.088Z,102960.16
2023-01-25T07:24:53.904Z,102961.91
2023-01-25T07:27:21.619Z,102971.91
2023-01-25T07:29:49.358Z,102959.47
2023-01-25T07:32:17.076Z,102957.16
2023-01-25T07:34:46.176Z,102955.75
2023-01-25T07:37:13.904Z,102962.75
2023-01-25T07:39:48.119Z,102957.13
2023-01-25T07:42:16.233Z,102962.06
2023-01-25T07:44:43.940Z,102954.03
2023-01-25T07:47:11.823Z,102954.00
2023-01-25T07:49:39.541Z,102951.75
2023-01-25T07:52:08.693Z,102957.72
2023-01-25T07:54:36.425Z,102955.69
2023-01-25T07:57:04.173Z,102964.78
2023-01-25T07:59:32.326Z,102950.38
2023-01-25T08:02:00.136Z,102939.06
2023-01-25T08:04:27.966Z,102935.47
2023-01-25T08:06:55.681Z,102923.31
2023-01-25T08:09:25.211Z,102929.19
2023-01-25T08:11:53.635Z,102913.59
2023-01-25T08:14:21.482Z,102917.59
2023-01-25T08:16:49.210Z,102918.91
2023-01-25T08:19:16.996Z,102920.78
2023-01-25T08:21:44.709Z,102895.38
2023-01-25T08:24:13.091Z,102916.50
2023-01-25T08:26:43.568Z,102904.94
2023-01-25T08:29:12.850Z,102895.94
2023-01-25T08:31:43.926Z,102906.50
2023-01-25T08:34:11.851Z,102897.59
2023-01-25T08:36:39.581Z,102887.97
2023-01-25T08:39:09.118Z,102895.22
2023-01-25T08:41:37.271Z,102900.63
2023-01-25T08:44:06.816Z,102893.47
2023-01-25T08:46:35.825Z,102886.56
2023-01-25T08:49:04.146Z,102870.00
2023-01-25T08:51:33.221Z,102866.31
2023-01-25T08:54:04.015Z,102871.06
2023-01-25T08:56:31.798Z,102852.81
2023-01-25T08:58:59.526Z,102862.22
2023-01-25T09:01:28.863Z,102855.53
2023-01-25T09:03:56.618Z,102853.78
2023-01-25T09:06:24.400Z,102848.59
2023-01-25T09:08:52.099Z,102844.41
2023-01-25T09:11:22.413Z,102839.88
2023-01-25T09:13:50.789Z,102846.03
2023-01-25T09:16:27.397Z,102844.97
2023-01-25T09:18:57.667Z,102841.44
2023-01-25T09:21:25.775Z,102842.69
2023-01-25T09:24:05.942Z,102840.19
2023-01-25T09:26:35.542Z,102831.31
2023-01-25T09:29:03.340Z,102832.94
2023-01-25T09:31:31.475Z,102847.63
2023-01-25T09:34:01.081Z,102835.53
2023-01-25T09:36:28.813Z,102837.00
2023-01-25T09:38:56.883Z,102833.78
2023-01-25T09:41:43.637Z,102833.72
2023-01-25T09:44:25.325Z,102821.63
2023-01-25T09:46:57.544Z,102821.69
2023-01-25T09:49:45.313Z,102827.69
2023-01-25T09:52:39.053Z,102819.56
2023-01-25T09:55:14.655Z,102832.59
2023-01-25T09:57:45.402Z,102848.44
2023-01-25T10:00:21.625Z,102856.34
2023-01-25T10:02:55.333Z,102896.88
2023-01-25T10:05:29.188Z,102877.72
2023-01-25T10:08:01.665Z,102876.34
2023-01-25T10:10:36.711Z,102866.75
2023-01-25T10:13:04.794Z,102850.44
2023-01-25T10:15:39.833Z,102868.25
2023-01-25T10:18:21.129Z,102857.53
2023-01-25T10:20:56.894Z,102852.03
2023-01-25T10:23:52.413Z,102829.16
2023-01-25T10:26:26.775Z,102831.34
2023-01-25T10:29:03.964Z,102831.97
2023-01-25T10:31:41.125Z,102829.75
2023-01-25T10:34:20.697Z,102856.94
2023-01-25T10:36:55.106Z,102855.25
2023-01-25T10:39:23.191Z,102850.84
2023-01-25T10:41:56.099Z,102835.06
2023-01-25T10:44:26.286Z,102828.88
2023-01-25T10:47:00.701Z,102839.75
2023-01-25T10:49:37.638Z,102819.44
2023-01-25T10:52:18.349Z,102811.44
2023-01-25T10:54:46.785Z,102813.09
2023-01-25T10:57:19.459Z,102814.41
2023-01-25T10:59:48.636Z,102798.75
2023-01-25T11:02:45.749Z,102794.53
2023-01-25T11:05:28.084Z,102780.19
2023-01-25T11:07:57.386Z,102791.19
2023-01-25T11:10:34.434Z,102791.69
2023-01-25T11:13:21.566Z,102789.59
2023-01-25T11:15:51.787Z,102788.81
2023-01-25T11:18:23.007Z,102797.22
2023-01-25T11:21:05.228Z,102784.94
2023-01-25T11:23:35.105Z,102758.97
2023-01-25T11:26:14.296Z,102740.78
2023-01-25T11:28:42.733Z,102750.09
2023-01-25T11:31:13.729Z,102722.22
2023-01-25T11:33:42.115Z,102738.41
2023-01-25T11:36:26.681Z,102733.91
2023-01-25T11:39:19.415Z,102714.28
2023-01-25T11:42:00.233Z,102717.19
2023-01-25T11:44:56.694Z,102740.03
2023-01-25T11:47:41.903Z,102707.19
2023-01-25T11:50:16.312Z,102716.22
2023-01-25T11:53:09.708Z,102679.00
2023-01-25T11:55:46.942Z,102683.66
2023-01-25T11:58:33.302Z,102664.72
2023-01-25T12:01:12.239Z,102660.72
2023-01-25T12:04:25.756Z,102654.22
2023-01-25T12:07:00.634Z,102665.84
2023-01-25T12:09:44.556Z,102680.06
2023-01-25T12:12:25.757Z,102677.72
2023-01-25T12:15:11.275Z,102693.25
2023-01-25T12:17:51.567Z,102710.41
2023-01-25T12:20:37.248Z,102704.38
2023-01-25T12:23:25.514Z,102694.66
2023-01-25T12:26:08.601Z,102713.47
2023-01-25T12:28:42.117Z,102684.41
2023-01-25T12:31:15.620Z,102683.16
2023-01-25T12:33:48.775Z,102681.16
2023-01-25T12:36:21.397Z,102688.94
2023-01-25T12:38:54.345Z,102684.50
2023-01-25T12:41:30.583Z,102673.41
2023-01-25T12:44:09.720Z,102672.72
2023-01-25T12:46:43.067Z,102666.66
2023-01-25T12:49:21.215Z,102658.03
2023-01-25T12:51:50.420Z,102649.81
2023-01-25T12:54:24.490Z,102646.25
2023-01-25T12:57:02.436Z,102652.84
2023-01-25T12:59:41.178Z,102630.13
2023-01-25T13:02:23.797Z,102622.59
2023-01-25T13:05:03.000Z,102617.66
2023-01-25T13:07:38.563Z,102631.25
2023-01-25T13:10:19.175Z,102660.19
2023-01-25T13:12:54.692Z,102651.81
2023-01-25T13:15:42.799Z,102667.78
2023-01-25T13:18:39.793Z,102676.94
2023-01-25T13:21:13.792Z,102686.88
2023-01-25T13:23:47.279Z,102708.81
2023-01-25T13:26:49.656Z,102696.03
2023-01-25T13:29:46.020Z,102677.56
2023-01-25T13:32:35.945Z,102677.50
2023-01-25T13:35:05.150Z,102675.72
2023-01-25T13:37:35.741Z,102650.13
2023-01-25T13:40:06.210Z,102660.16
2023-01-25T13:42:36.319Z,102661.94
2023-01-25T13:45:15.446Z,102655.88
2023-01-25T13:47:46.428Z,102646.94
2023-01-25T13:50:23.428Z,102644.75
2023-01-25T13:52:58.660Z,102642.25
2023-01-25T13:55:27.280Z,102648.06
2023-01-25T13:58:09.297Z,102622.56
2023-01-25T14:00:37.100Z,102614.63
2023-01-25T14:03:07.336Z,102614.47
2023-01-25T14:05:35.166Z,102616.72
2023-01-25T14:08:02.965Z,102609.50
2023-01-25T14:10:31.286Z,102600.56
2023-01-25T14:13:01.307Z,102602.44
2023-01-25T14:15:31.055Z,102598.06
2023-01-25T14:18:15.163Z,102593.44
2023-01-25T14:20:43.908Z,102591.44
2023-01-25T14:23:25.717Z,102581.00
2023-01-25T14:25:55.001Z,102563.84
2023-01-25T14:28:23.050Z,102553.16
2023-01-25T14:30:55.800Z,102568.69
2023-01-25T14:33:28.591Z,102590.47
2023-01-25T14:36:05.743Z,102579.91
2023-01-25T14:38:38.652Z,102575.44
2023-01-25T14:41:14.726Z,102573.53
2023-01-25T14:43:45.484Z,102584.47
2023-01-25T14:46:28.911Z,102554.44
2023-01-25T14:49:25.141Z,102540.88
2023-01-25T14:52:00.599Z,102539.50
2023-01-25T14:54:31.399Z,102529.63
2023-01-25T14:57:01.776Z,102541.13
2023-01-25T14:59:37.768Z,102530.28
2023-01-25T15:02:18.327Z,102522.59
2023-01-25T15:04:56.083Z,102511.38
2023-01-25T15:07:37.109Z,102526.94
2023-01-25T15:10:15.441Z,102506.97
2023-01-25T15:12:43.275Z,102520.34
2023-01-25T15:15:22.247Z,102507.31
2023-01-25T15:17:51.490Z,102501.97
2023-01-25T15:20:36.104Z,102503.97
2023-01-25T15:23:18.228Z,102502.97
2023-01-25T15:25:57.149Z,102500.19
2023-01-25T15:28:26.799Z,102470.28
2023-01-25T15:30:54.897Z,102453.34
2023-01-25T15:33:25.219Z,102450.38
2023-01-25T15:35:55.030Z,102436.34
2023-01-25T15:38:24.492Z,102436.78
2023-01-25T15:40:52.846Z,102426.81
2023-01-25T15:43:21.336Z,102446.56
2023-01-25T15:45:51.375Z,102426.28
2023-01-25T15:48:23.518Z,102446.63
2023-01-25T15:50:51.256Z,102457.22
2023-01-25T15:53:20.304Z,102457.38
2023-01-25T15:55:51.969Z,102460.53
2023-01-25T15:58:33.828Z,102453.88
2023-01-25T16:01:01.610Z,102443.75
2023-01-25T16:03:29.944Z,102434.50
2023-01-25T16:05:59.945Z,102426.34
2023-01-25T16:08:30.015Z,102406.22
2023-01-25T16:10:58.293Z,102411.28
2023-01-25T16:13:26.200Z,102409.31
2023-01-25T16:15:56.890Z,102401.53
2023-01-25T16:18:24.624Z,102414.00
2023-01-25T16:20:52.357Z,102399.09
2023-01-25T16:23:20.082Z,102401.63
2023-01-25T16:25:49.784Z,102394.16
2023-01-25T16:28:17.835Z,102378.91
2023-01-25T16:30:45.699Z,102383.00
2023-01-25T16:33:13.606Z,102385.84
2023-01-25T16:35:41.371Z,102373.84
2023-01-25T16:38:12.730Z,102367.47
2023-01-25T16:40:40.442Z,102382.38
2023-01-25T16:43:09.518Z,102390.09
2023-01-25T16:45:37.223Z,102382.78
2023-01-25T16:48:05.346Z,102371.38
2023-01-25T16:50:33.168Z,102390.88
2023-01-25T16:53:01.044Z,102400.97
2023-01-25T16:55:28.754Z,102420.94
2023-01-25T16:57:56.477Z,102398.56
2023-01-25T17:00:25.790Z,102379.41
2023-01-25T17:02:59.101Z,102360.09
2023-01-25T17:05:29.009Z,102368.63
2023-01-25T17:07:56.874Z,102369.53
2023-01-25T17:10:25.057Z,102376.31
2023-01-25T17:12:52.884Z,102358.59
2023-01-25T17:15:20.583Z,102346.78
2023-01-25T17:17:50.735Z,102344.94
2023-01-25T17:20:18.626Z,102342.06
2023-01-25T17:22:50.946Z,102322.06
2023-01-25T17:25:18.911Z,102329.34
2023-01-25T17:27:47.058Z,102330.16
2023-01-25T17:30:15.491Z,102334.38
2023-01-25T17:32:43.238Z,102349.69
2023-01-25T17:35:12.343Z,102338.94
2023-01-25T17:37:41.118Z,102331.22
2023-01-25T17:40:11.307Z,102350.78
2023-01-25T17:42:39.284Z,102349.53
2023-01-25T17:45:08.975Z,102356.53
2023-01-25T17:47:36.907Z,102364.44
2023-01-25T17:50:04.926Z,102388.81
2023-01-25T17:52:33.999Z,102398.38
2023-01-25T17:55:01.738Z,102410.88
2023-01-25T17:57:31.311Z,102382.38
2023-01-25T17:59:59.152Z,102374.13
2023-01-25T18:02:26.903Z,102365.09
2023-01-25T18:04:54.801Z,102359.53
2023-01-25T18:07:22.512Z,102336.00
2023-01-25T18:09:51.749Z,102352.63
2023-01-25T18:12:20.693Z,102315.19
2023-01-25T18:14:48.622Z,102332.53
2023-01-25T18:17:16.320Z,102333.84
2023-01-25T18:19:45.863Z,102340.06
2023-01-25T18:22:14.712Z,102320.28
2023-01-25T18:24:44.760Z,102352.63
2023-01-25T18:27:20.057Z,102342.66
2023-01-25T18:29:55.064Z,102349.44
2023-01-25T18:32:23.164Z,102334.94
2023-01-25T18:34:50.915Z,102325.31
2023-01-25T18:37:21.810Z,102334.56
2023-01-25T18:39:50.954Z,102347.31
2023-01-25T18:42:21.381Z,102312.94
2023-01-25T18:44:49.270Z,102330.94
2023-01-25T18:47:18.947Z,102310.53
2023-01-25T18:49:47.334Z,102308.00
2023-01-25T18:52:16.618Z,102307.03
2023-01-25T18:54:44.526Z,102292.53
2023-01-25T18:57:13.215Z,102299.09
2023-01-25T18:59:42.473Z,102262.38
2023-01-25T19:02:12.851Z,102262.66
2023-01-25T19:04:40.919Z,102243.50
2023-01-25T19:07:08.732Z,102221.00
2023-01-25T19:09:36.567Z,102224.16
2023-01-25T19:12:04.737Z,102237.88
2023-01-25T19:14:32.466Z,102244.88
2023-01-25T19:17:01.568Z,102210.59
2023-01-25T19:19:32.054Z,102222.38
2023-01-25T19:21:59.975Z,102210.81
2023-01-25T19:24:27.909Z,102178.78
2023-01-25T19:26:55.725Z,102163.09
2023-01-25T19:29:23.434Z,102156.53
2023-01-25T19:31:51.616Z,102167.31
2023-01-25T19:34:20.758Z,102172.72
2023-01-25T19:36:50.112Z,102158.28
2023-01-25T19:39:19.299Z,102148.09
2023-01-25T19:41:47.108Z,102161.41
2023-01-25T19:44:15.630Z,102200.88
2023-01-25T19:46:44.005Z,102204.28
2023-01-25T19:49:13.246Z,102221.00
2023-01-25T19:51:48.824Z,102240.47
2023-01-25T19:54:18.540Z,102238.03
2023-01-25T19:56:47.881Z,102199.94
2023-01-25T19:59:17.268Z,102210.72
2023-01-25T20:01:46.223Z,102202.19
2023-01-25T20:04:15.723Z,102185.06
2023-01-25T20:06:45.213Z,102170.94
2023-01-25T20:09:14.137Z,102148.53
2023-01-25T20:11:42.718Z,102152.69
2023-01-25T20:14:13.444Z,102170.88
2023-01-25T20:16:41.163Z,102164.25
2023-01-25T20:19:11.614Z,102166.13
2023-01-25T20:21:39.824Z,102145.28
2023-01-25T20:24:10.483Z,102146.06
2023-01-25T20:26:39.771Z,102125.16
2023-01-25T20:29:08.588Z,102125.59
2023-01-25T20:31:38.221Z,102109.56
2023-01-25T20:34:08.835Z,102116.44
2023-01-25T20:36:37.094Z,102112.91
2023-01-25T20:39:06.124Z,102110.91
2023-01-25T20:41:35.969Z,102115.97
2023-01-25T20:44:08.444Z,102116.03
2023-01-25T20:46:38.638Z,102098.53
2023-01-25T20:49:08.446Z,102102.72
2023-01-25T20:51:36.612Z,102097.06
2023-01-25T20:54:04.504Z,102077.91
2023-01-25T20:56:32.765Z,102096.16
2023-01-25T20:59:01.871Z,102077.44
2023-01-25T21:01:31.263Z,102070.31
2023-01-25T21:03:59.506Z,102076.78
2023-01-25T21:06:29.302Z,102067.84
2023-01-25T21:08:57.191Z,102070.59
2023-01-25T21:11:25.105Z,102077.78
2023-01-25T21:13:53.895Z,102081.78
2023-01-25T21:16:24.060Z,102087.88
2023-01-25T21:18:54.521Z,102075.19
2023-01-25T21:21:23.413Z,102075.25
2023-01-25T21:23:51.831Z,102058.03
2023-01-25T21:26:22.014Z,102074.88
2023-01-25T21:28:49.982Z,102074.16
2023-01-25T21:31:20.166Z,102081.56
2023-01-25T21:33:49.590Z,102073.09
2023-01-25T21:36:18.798Z,102092.81
2023-01-25T21:38:47.901Z,102078.22
2023-01-25T21:41:19.861Z,102100.81
2023-01-25T21:44:04.994Z,102098.06
2023-01-25T21:46:33.229Z,102086.91
2023-01-25T21:49:22.246Z,102083.72
2023-01-25T21:51:51.974Z,102090.44
2023-01-25T21:54:22.195Z,102089.84
2023-01-25T21:56:52.212Z,102086.31
2023-01-25T21:59:20.107Z,102086.22
2023-01-25T22:01:48.523Z,102055.59
2023-01-25T22:04:19.604Z,102059.34
2023-01-25T22:06:48.717Z,102059.41
2023-01-25T22:09:16.653Z,102064.03
2023-01-25T22:11:45.935Z,102037.41
2023-01-25T22:14:13.701Z,102046.75
2023-01-25T22:16:41.471Z,102038.41
2023-01-25T22:19:09.314Z,102046.94
2023-01-25T22:21:38.754Z,102042.59
2023-01-25T22:24:07.567Z,102023.69
2023-01-25T22:26:46.276Z,102056.66
2023-01-25T22:29:14.949Z,102045.97
2023-01-25T22:31:43.195Z,102055.88
2023-01-25T22:34:11.846Z,102048.53
2023-01-25T22:36:40.945Z,102036.75
2023-01-25T22:39:09.157Z,102032.25
2023-01-25T22:41:38.445Z,102016.81
2023-01-25T22:44:06.379Z,102016.53
2023-01-25T22:46:34.426Z,102020.94
2023-01-25T22:49:02.566Z,102013.81
2023-01-25T22:51:31.475Z,101995.78
2023-01-25T22:54:01.392Z,102000.25
2023-01-25T22:56:31.775Z,102002.97
2023-01-25T22:59:00.561Z,102008.72
2023-01-25T23:01:30.507Z,101996.34
2023-01-25T23:03:58.888Z,102010.69
2023-01-25T23:06:28.016Z,102011.06
2023-01-25T23:08:57.382Z,102021.97
2023-01-25T23:11:32.062Z,102026.47
2023-01-25T23:14:18.079Z,102011.84
2023-01-25T23:16:45.887Z,102001.13
2023-01-25T23:19:12.667Z,101990.38
2023-01-25T23:21:41.208Z,101996.16
2023-01-25T23:24:09.898Z,101970.19
2023-01-25T23:26:39.150Z,101966.47
2023-01-25T23:29:12.335Z,101966.75
2023-01-25T23:31:40.277Z,101966.38
2023-01-25T23:34:08.301Z,101957.88
2023-01-25T23:36:38.690Z,101969.38
2023-01-25T23:39:07.066Z,101949.47
2023-01-25T23:41:34.914Z,101952.50
2023-01-25T23:44:03.977Z,101943.16
2023-01-25T23:46:31.753Z,101955.25
2023-01-25T23:48:59.512Z,101964.03
2023-01-25T23:51:27.259Z,101974.13
2023-01-25T23:53:55.824Z,101964.47
2023-01-25T23:56:23.916Z,101964.28
2023-01-25T23:58:51.785Z,101948.69
